Time;durP1;ratioP1;P1;durP2;ratioP2;P2;SDS_P1;SDS_P2;PMS_P1;PMS_P2;Temp;Humidity;BMP_temperature;BMP_pressure;BME280_temperature;BME280_humidity;BME280_pressure;Samples;Min_cycle;Max_cycle;Signal;HPM_P1;HPM_P2
2022/01/29 00:02:10;;;;;;;6.90;2.85;;;0.00;99.90;;;;;;5125506;27;20860;-59
2022/01/29 00:04:50;;;;;;;6.30;3.70;;;0.00;99.90;;;;;;5120790;27;20700;-59
2022/01/29 00:07:30;;;;;;;7.50;3.58;;;0.00;99.90;;;;;;5081130;27;20573;-60
2022/01/29 00:10:11;;;;;;;5.45;3.10;;;0.00;99.90;;;;;;5083955;27;20543;-60
2022/01/29 00:12:50;;;;;;;6.22;3.25;;;0.00;99.90;;;;;;5077536;27;20568;-60
2022/01/29 00:15:30;;;;;;;7.47;3.60;;;0.10;99.90;;;;;;5123807;27;20755;-60
2022/01/29 00:18:09;;;;;;;10.88;4.70;;;0.20;99.90;;;;;;5075168;27;21151;-60
2022/01/29 00:20:49;;;;;;;5.55;3.03;;;0.20;99.90;;;;;;5082259;27;20551;-58
2022/01/29 00:23:29;;;;;;;6.43;3.42;;;0.30;99.90;;;;;;5083638;27;20535;-59
2022/01/29 00:26:11;;;;;;;6.57;3.90;;;0.50;99.90;;;;;;5078091;27;20590;-60
2022/01/29 00:28:51;;;;;;;4.47;3.70;;;0.60;99.90;;;;;;5082430;28;20687;-59
2022/01/29 00:31:31;;;;;;;6.75;4.28;;;0.70;99.90;;;;;;5143226;27;20574;-60
2022/01/29 00:34:10;;;;;;;9.27;4.22;;;0.80;99.90;;;;;;5086546;28;21258;-60
2022/01/29 00:36:50;;;;;;;7.63;3.63;;;0.80;99.90;;;;;;5122774;27;21040;-59
2022/01/29 00:39:30;;;;;;;8.82;4.80;;;0.70;99.90;;;;;;5083083;27;20956;-59
2022/01/29 00:42:10;;;;;;;7.45;4.47;;;0.70;99.90;;;;;;5083484;28;20845;-60
2022/01/29 00:44:49;;;;;;;9.60;4.97;;;0.60;99.90;;;;;;5135800;27;20583;-60
2022/01/29 00:47:29;;;;;;;4.47;3.80;;;0.60;99.90;;;;;;5112253;27;21080;-59
2022/01/29 00:50:11;;;;;;;7.03;5.47;;;0.70;99.90;;;;;;5099623;27;20568;-60
2022/01/29 00:52:50;;;;;;;7.30;5.40;;;0.80;99.90;;;;;;5119688;27;20675;-59
2022/01/29 00:55:30;;;;;;;8.93;5.70;;;0.90;99.90;;;;;;5117733;27;20546;-58
2022/01/29 00:58:10;;;;;;;7.70;5.50;;;0.90;99.90;;;;;;5104130;27;20572;-59
2022/01/29 01:00:50;;;;;;;6.70;5.80;;;1.00;99.90;;;;;;5084152;27;20540;-60
2022/01/29 01:03:30;;;;;;;7.68;6.05;;;1.00;99.90;;;;;;5121013;27;20547;-59
2022/01/29 01:06:10;;;;;;;8.40;5.22;;;1.10;99.90;;;;;;5073453;27;20552;-60
2022/01/29 01:08:49;;;;;;;6.55;5.32;;;1.10;99.90;;;;;;5083048;28;20559;-60
2022/01/29 01:11:31;;;;;;;11.88;6.22;;;1.20;99.90;;;;;;5071187;27;20581;-60
2022/01/29 01:14:11;;;;;;;9.70;5.65;;;1.20;99.90;;;;;;5145165;27;20669;-55
2022/01/29 01:16:50;;;;;;;7.13;4.88;;;1.20;99.90;;;;;;5079785;28;20686;-59
2022/01/29 01:19:30;;;;;;;9.23;5.00;;;1.20;99.90;;;;;;5139120;27;20976;-59
2022/01/29 01:22:10;;;;;;;9.90;4.90;;;1.20;99.90;;;;;;5093482;27;20554;-60
2022/01/29 01:24:50;;;;;;;8.15;5.18;;;1.20;99.90;;;;;;5137518;27;20559;-60
2022/01/29 01:27:30;;;;;;;5.95;5.18;;;1.20;99.90;;;;;;5081878;27;20577;-60
2022/01/29 01:30:11;;;;;;;9.40;4.82;;;1.20;99.90;;;;;;5082667;28;20575;-59
2022/01/29 01:32:51;;;;;;;8.65;4.55;;;1.10;99.90;;;;;;5107993;27;20705;-60
2022/01/29 01:35:35;;;;;;;5.78;4.05;;;1.10;99.90;;;;;;5116612;27;20551;-60
2022/01/29 01:38:19;;;;;;;6.28;4.70;;;1.10;99.90;;;;;;5094985;27;20692;-60
2022/01/29 01:41:03;;;;;;;5.28;4.28;;;1.10;99.90;;;;;;5099612;27;20576;-58
2022/01/29 01:43:43;;;;;;;5.60;4.20;;;1.10;99.90;;;;;;5081093;28;21055;-60
2022/01/29 01:46:23;;;;;;;7.45;5.55;;;1.10;99.90;;;;;;5083434;28;20543;-60
2022/01/29 01:49:04;;;;;;;8.25;6.43;;;1.10;99.90;;;;;;5069059;28;20677;-60
2022/01/29 01:51:43;;;;;;;7.28;5.95;;;1.10;99.90;;;;;;5085299;28;20655;-60
2022/01/29 01:54:22;;;;;;;7.40;6.70;;;1.10;99.90;;;;;;5083458;27;20547;-60
2022/01/29 01:57:02;;;;;;;11.02;7.18;;;1.20;99.90;;;;;;5082772;28;21028;-58
2022/01/29 01:59:42;;;;;;;8.18;7.25;;;1.20;99.90;;;;;;5144473;27;20555;-58
2022/01/29 02:02:23;;;;;;;13.70;7.60;;;1.20;99.90;;;;;;5104779;27;20587;-59
2022/01/29 02:05:02;;;;;;;9.63;7.75;;;1.30;99.90;;;;;;5123820;27;20560;-60
2022/01/29 02:07:42;;;;;;;8.18;7.20;;;1.30;99.90;;;;;;5096717;27;20707;-60
2022/01/29 02:10:24;;;;;;;8.70;7.90;;;1.30;99.90;;;;;;5117777;27;21069;-59
2022/01/29 02:13:05;;;;;;;9.73;6.38;;;1.30;99.90;;;;;;5104406;27;20677;-57
2022/01/29 02:15:47;;;;;;;11.23;7.00;;;1.40;99.90;;;;;;5140954;27;20554;-58
2022/01/29 02:18:26;;;;;;;7.18;6.50;;;1.40;99.90;;;;;;5073576;28;20709;-60
2022/01/29 02:21:06;;;;;;;9.32;6.75;;;1.40;99.90;;;;;;5104038;27;20960;-60
2022/01/29 02:23:45;;;;;;;7.78;6.97;;;1.40;99.90;;;;;;5104518;27;20542;-59
2022/01/29 02:26:25;;;;;;;9.23;6.90;;;1.40;99.90;;;;;;5084991;27;21060;-57
2022/01/29 02:29:06;;;;;;;8.88;7.75;;;1.50;99.90;;;;;;5083861;28;20608;-60
2022/01/29 02:31:50;;;;;;;11.57;8.23;;;1.50;99.90;;;;;;5101756;27;20693;-60
2022/01/29 02:34:31;;;;;;;11.70;7.50;;;1.50;99.90;;;;;;5145672;27;20565;-58
2022/01/29 02:37:11;;;;;;;8.98;8.07;;;1.50;99.90;;;;;;5083523;27;20596;-60
2022/01/29 02:39:51;;;;;;;8.73;7.75;;;1.60;99.90;;;;;;5081180;28;20702;-60
2022/01/29 02:42:30;;;;;;;9.30;8.40;;;1.60;99.90;;;;;;5092968;27;20735;-60
2022/01/29 02:45:10;;;;;;;9.27;7.88;;;1.60;99.90;;;;;;5143127;27;21184;-59
2022/01/29 02:47:50;;;;;;;8.80;8.10;;;1.60;99.90;;;;;;5078581;28;20682;-59
2022/01/29 02:50:30;;;;;;;9.80;8.80;;;1.60;99.90;;;;;;5104641;27;20545;-58
2022/01/29 02:53:10;;;;;;;9.13;8.20;;;1.60;99.90;;;;;;5126170;27;20544;-60
2022/01/29 02:55:50;;;;;;;10.15;8.10;;;1.60;99.90;;;;;;5118292;27;21074;-58
2022/01/29 02:58:30;;;;;;;9.05;8.30;;;1.70;99.90;;;;;;5068410;27;20636;-60
2022/01/29 03:01:10;;;;;;;10.02;9.02;;;1.60;99.90;;;;;;5083275;28;20667;-58
2022/01/29 03:03:49;;;;;;;9.25;8.38;;;1.60;99.90;;;;;;5105040;27;20574;-60
2022/01/29 03:06:30;;;;;;;9.32;8.52;;;1.70;99.90;;;;;;5103326;27;20550;-59
2022/01/29 03:09:09;;;;;;;9.75;8.93;;;1.70;99.90;;;;;;5083870;28;20692;-59
2022/01/29 03:11:49;;;;;;;10.02;9.13;;;1.60;99.90;;;;;;5146616;27;21202;-60
2022/01/29 03:14:28;;;;;;;10.70;9.30;;;1.60;99.90;;;;;;5083442;28;20679;-58
2022/01/29 03:17:08;;;;;;;9.40;8.43;;;1.70;99.90;;;;;;5079703;27;20563;-58
2022/01/29 03:19:50;;;;;;;10.25;9.30;;;1.70;99.90;;;;;;5104082;27;20673;-60
2022/01/29 03:22:30;;;;;;;9.57;8.77;;;1.70;99.90;;;;;;5125558;27;20532;-59
2022/01/29 03:25:10;;;;;;;10.10;8.90;;;1.60;99.90;;;;;;5105284;27;20537;-60
2022/01/29 03:27:49;;;;;;;9.52;8.63;;;1.60;99.90;;;;;;5083889;27;20589;-58
2022/01/29 03:30:29;;;;;;;10.43;8.45;;;1.60;99.90;;;;;;5084499;28;20687;-60
2022/01/29 03:33:09;;;;;;;8.80;7.78;;;1.70;99.90;;;;;;5146071;27;21033;-59
2022/01/29 03:35:49;;;;;;;9.32;8.40;;;1.60;99.90;;;;;;5078897;27;21130;-60
2022/01/29 03:38:28;;;;;;;12.15;8.73;;;1.70;99.90;;;;;;5128557;27;20719;-60
2022/01/29 03:41:10;;;;;;;9.32;8.45;;;1.70;99.90;;;;;;5083105;27;20539;-60
2022/01/29 03:43:52;;;;;;;9.02;7.90;;;1.70;99.90;;;;;;5104811;27;20538;-58
2022/01/29 03:46:32;;;;;;;8.70;7.90;;;1.70;99.90;;;;;;5125784;27;20573;-58
2022/01/29 03:49:11;;;;;;;9.23;8.05;;;1.70;99.90;;;;;;5083699;28;21031;-59
2022/01/29 03:51:51;;;;;;;8.90;8.15;;;1.70;99.90;;;;;;5105100;27;21206;-60
2022/01/29 03:54:31;;;;;;;8.93;8.13;;;1.70;99.90;;;;;;5125278;27;20548;-58
2022/01/29 03:57:10;;;;;;;8.18;7.55;;;1.70;99.90;;;;;;5104377;27;20661;-58
2022/01/29 03:59:50;;;;;;;8.80;7.93;;;1.70;99.90;;;;;;5145851;27;20603;-59
2022/01/29 04:02:30;;;;;;;8.23;7.53;;;1.70;99.90;;;;;;5085305;27;20573;-60
2022/01/29 04:05:11;;;;;;;8.82;8.02;;;1.70;99.90;;;;;;5084062;27;20904;-59
2022/01/29 04:07:50;;;;;;;10.80;8.07;;;1.70;99.90;;;;;;5079199;28;20674;-58
2022/01/29 04:10:30;;;;;;;8.90;7.97;;;1.70;99.90;;;;;;5084555;28;20547;-60
2022/01/29 04:13:12;;;;;;;8.07;7.43;;;1.70;99.90;;;;;;5084630;27;20536;-59
2022/01/29 04:15:51;;;;;;;8.13;7.32;;;1.80;99.90;;;;;;5105055;27;20658;-59
2022/01/29 04:18:31;;;;;;;8.60;7.80;;;1.70;99.90;;;;;;5124182;27;20555;-59
2022/01/29 04:21:11;;;;;;;7.95;7.05;;;1.70;99.90;;;;;;5084721;27;20540;-60
2022/01/29 04:23:50;;;;;;;9.60;7.05;;;1.70;99.90;;;;;;5145764;27;20946;-58
2022/01/29 04:26:33;;;;;;;7.65;6.95;;;1.70;99.90;;;;;;5105228;27;20529;-60
2022/01/29 04:29:16;;;;;;;9.35;7.65;;;1.80;99.90;;;;;;5103639;27;20553;-59
2022/01/29 04:32:05;;;;;;;9.48;7.10;;;1.80;99.90;;;;;;5105108;27;20653;-60
2022/01/29 04:34:44;;;;;;;8.85;7.47;;;1.70;99.90;;;;;;5091433;28;21031;-58
2022/01/29 04:37:24;;;;;;;7.38;6.78;;;1.70;99.90;;;;;;5082359;27;21096;-59
2022/01/29 04:40:04;;;;;;;7.80;7.10;;;1.70;99.90;;;;;;5066469;27;20548;-58
2022/01/29 04:42:43;;;;;;;8.07;7.28;;;1.70;99.90;;;;;;5125562;27;20672;-57
2022/01/29 04:45:23;;;;;;;10.23;8.38;;;1.70;99.90;;;;;;5084691;28;20664;-60
2022/01/29 04:48:03;;;;;;;9.75;8.30;;;1.70;99.90;;;;;;5083677;28;21028;-60
2022/01/29 04:50:43;;;;;;;8.57;7.70;;;1.70;99.90;;;;;;5084287;27;21088;-59
2022/01/29 04:53:23;;;;;;;9.32;8.18;;;1.70;99.90;;;;;;5084628;28;20672;-58
2022/01/29 04:56:03;;;;;;;8.68;7.72;;;1.70;99.90;;;;;;5084568;27;20547;-60
2022/01/29 04:58:43;;;;;;;8.25;7.55;;;1.70;99.90;;;;;;5124233;27;20984;-60
2022/01/29 05:01:22;;;;;;;8.52;7.70;;;1.70;99.90;;;;;;5084586;28;21035;-60
2022/01/29 05:04:02;;;;;;;8.80;8.00;;;1.70;99.90;;;;;;5084273;28;20664;-60
2022/01/29 05:06:42;;;;;;;8.45;7.75;;;1.70;99.90;;;;;;5081697;28;20559;-60
2022/01/29 05:09:22;;;;;;;8.45;7.75;;;1.70;99.90;;;;;;5102686;27;20554;-59
2022/01/29 05:12:02;;;;;;;10.45;8.30;;;1.70;99.90;;;;;;5085077;28;20663;-57
2022/01/29 05:14:51;;;;;;;8.25;7.45;;;1.80;99.90;;;;;;5085244;28;20706;-60
2022/01/29 05:29:21;;;;;;;6.82;6.22;;;1.80;99.90;;;;;;5145115;27;20678;-58
2022/01/29 05:32:01;;;;;;;7.47;6.88;;;1.80;99.90;;;;;;5105106;27;20972;-58
2022/01/29 05:34:41;;;;;;;7.53;6.60;;;1.80;99.90;;;;;;5084732;27;20531;-60
2022/01/29 05:37:20;;;;;;;8.20;7.30;;;1.90;99.90;;;;;;5145346;27;20530;-60
2022/01/29 05:40:00;;;;;;;5.93;5.30;;;1.80;99.90;;;;;;5084642;27;20566;-60
2022/01/29 05:42:40;;;;;;;7.13;6.00;;;1.80;99.90;;;;;;5084989;28;20656;-60
2022/01/29 05:45:19;;;;;;;7.38;6.72;;;1.80;99.90;;;;;;5125966;27;20671;-58
2022/01/29 05:47:59;;;;;;;6.45;5.95;;;1.80;99.90;;;;;;5104139;27;21043;-60
2022/01/29 05:50:41;;;;;;;6.25;5.72;;;1.80;99.90;;;;;;5104729;27;20537;-59
2022/01/29 05:53:21;;;;;;;6.20;5.70;;;1.80;99.90;;;;;;5105314;27;20673;-60
2022/01/29 05:56:00;;;;;;;6.65;6.05;;;1.80;99.90;;;;;;5084914;28;21025;-60
2022/01/29 05:58:40;;;;;;;7.43;6.65;;;1.90;99.90;;;;;;5083442;27;20932;-59
2022/01/29 06:01:20;;;;;;;6.30;5.72;;;1.90;99.90;;;;;;5105077;27;20657;-59
2022/01/29 06:04:00;;;;;;;8.27;6.22;;;1.90;99.90;;;;;;5084059;28;20667;-59
2022/01/29 06:06:40;;;;;;;6.05;5.55;;;1.90;99.90;;;;;;5145297;27;20535;-59
2022/01/29 06:09:20;;;;;;;6.93;6.32;;;1.90;99.90;;;;;;5067282;28;20736;-60
2022/01/29 06:11:59;;;;;;;6.00;5.50;;;1.90;99.90;;;;;;5125689;27;20540;-59
2022/01/29 06:14:51;;;;;;;6.43;5.82;;;1.90;99.90;;;;;;5083390;28;20620;-60
2022/01/29 06:17:31;;;;;;;7.35;6.65;;;1.80;99.90;;;;;;5102498;27;21153;-60
2022/01/29 06:20:11;;;;;;;6.43;5.72;;;1.80;99.90;;;;;;5084411;28;20676;-59
2022/01/29 06:22:50;;;;;;;7.15;6.45;;;1.90;99.90;;;;;;5084904;28;20672;-60
2022/01/29 06:25:31;;;;;;;6.85;6.25;;;1.80;99.90;;;;;;5084554;27;20553;-59
2022/01/29 06:28:10;;;;;;;7.00;6.35;;;1.90;99.90;;;;;;5103629;27;20565;-60
2022/01/29 06:30:50;;;;;;;8.27;7.53;;;1.90;99.90;;;;;;5134918;27;20649;-59
2022/01/29 06:33:30;;;;;;;7.70;7.00;;;1.90;99.90;;;;;;5083910;27;20947;-58
2022/01/29 06:36:10;;;;;;;8.18;7.38;;;1.80;99.90;;;;;;5083520;27;20564;-60
2022/01/29 06:38:49;;;;;;;6.78;6.13;;;1.80;99.90;;;;;;5138651;27;21055;-60
2022/01/29 06:41:29;;;;;;;6.97;6.35;;;1.80;99.90;;;;;;5136930;27;20646;-58
2022/01/29 06:44:09;;;;;;;7.72;6.20;;;1.80;99.90;;;;;;5125036;27;20532;-59
2022/01/29 06:46:50;;;;;;;7.07;6.20;;;1.80;99.90;;;;;;5124925;27;20593;-59
2022/01/29 06:49:29;;;;;;;7.00;6.32;;;1.90;99.90;;;;;;5065974;27;20549;-60
2022/01/29 06:52:09;;;;;;;6.15;5.63;;;1.80;99.90;;;;;;5100402;27;21066;-58
2022/01/29 06:54:48;;;;;;;7.72;7.03;;;1.90;99.90;;;;;;5097979;27;20557;-59
2022/01/29 06:57:28;;;;;;;7.20;6.60;;;1.80;99.90;;;;;;5083298;28;20663;-59
2022/01/29 07:00:10;;;;;;;7.90;7.18;;;1.80;99.90;;;;;;5150592;27;20846;-60
2022/01/29 07:02:50;;;;;;;8.05;7.32;;;1.80;99.90;;;;;;5083731;27;20547;-57
2022/01/29 07:05:29;;;;;;;6.10;5.57;;;1.80;99.90;;;;;;5083794;28;20551;-60
2022/01/29 07:08:10;;;;;;;7.25;6.65;;;1.80;99.90;;;;;;5124470;27;20548;-58
2022/01/29 07:10:50;;;;;;;7.05;6.25;;;1.90;99.90;;;;;;5099986;27;20716;-59
2022/01/29 07:13:31;;;;;;;9.25;8.38;;;1.90;99.90;;;;;;5076484;27;21103;-59
2022/01/29 07:16:10;;;;;;;7.32;6.63;;;1.90;99.90;;;;;;5103249;27;20846;-60
2022/01/29 07:18:50;;;;;;;7.50;6.85;;;1.90;99.90;;;;;;5102083;27;20554;-60
2022/01/29 07:21:30;;;;;;;7.80;7.18;;;1.90;99.90;;;;;;5103343;27;20685;-59
2022/01/29 07:24:10;;;;;;;8.27;7.05;;;1.90;99.90;;;;;;5116109;27;21368;-59
2022/01/29 07:26:49;;;;;;;7.47;6.78;;;1.90;99.90;;;;;;5143331;27;20599;-57
2022/01/29 07:29:29;;;;;;;9.18;7.75;;;1.90;99.90;;;;;;5102762;27;20607;-60
2022/01/29 07:32:11;;;;;;;8.88;8.02;;;1.90;99.90;;;;;;5083187;27;20604;-58
2022/01/29 07:34:51;;;;;;;9.40;8.65;;;1.90;99.90;;;;;;5082743;27;20668;-60
2022/01/29 07:37:30;;;;;;;9.93;9.10;;;1.90;99.90;;;;;;5084966;27;20711;-60
2022/01/29 07:40:11;;;;;;;8.98;8.07;;;1.90;99.90;;;;;;5132677;27;20544;-59
2022/01/29 07:42:50;;;;;;;9.05;8.23;;;1.90;99.90;;;;;;5142431;27;20958;-59
2022/01/29 07:45:30;;;;;;;9.02;8.25;;;1.90;99.90;;;;;;5103145;27;21006;-59
2022/01/29 07:48:10;;;;;;;9.43;8.50;;;1.90;99.90;;;;;;5091434;27;20559;-58
2022/01/29 07:50:50;;;;;;;9.25;8.20;;;1.90;99.90;;;;;;5099090;27;20558;-57
2022/01/29 07:53:29;;;;;;;9.10;8.40;;;1.90;99.90;;;;;;5123867;27;20864;-60
2022/01/29 07:56:10;;;;;;;9.20;8.40;;;1.90;99.90;;;;;;5080519;27;20573;-59
2022/01/29 07:58:49;;;;;;;9.48;8.65;;;1.90;99.90;;;;;;5042555;28;21040;-60
2022/01/29 08:01:29;;;;;;;9.00;8.27;;;1.90;99.90;;;;;;5083004;27;21099;-59
2022/01/29 08:04:09;;;;;;;8.93;8.23;;;2.00;99.90;;;;;;5062870;28;20653;-58
2022/01/29 08:06:48;;;;;;;9.00;8.30;;;1.90;99.90;;;;;;5094713;27;20555;-58
2022/01/29 08:09:28;;;;;;;10.57;9.68;;;1.90;99.90;;;;;;5088339;27;20720;-59
2022/01/29 08:12:10;;;;;;;10.45;9.48;;;2.00;99.90;;;;;;5083877;27;20543;-58
2022/01/29 08:14:50;;;;;;;11.18;10.25;;;2.00;99.90;;;;;;5069087;28;20564;-59
2022/01/29 08:17:30;;;;;;;10.13;9.18;;;2.00;99.90;;;;;;5082981;28;20672;-57
2022/01/29 08:20:10;;;;;;;11.43;10.23;;;2.00;99.90;;;;;;5144754;27;20678;-58
2022/01/29 08:22:49;;;;;;;10.40;9.60;;;2.10;99.90;;;;;;5112984;27;21046;-59
2022/01/29 08:25:29;;;;;;;11.65;10.50;;;2.00;99.90;;;;;;5143327;27;20666;-59
2022/01/29 08:28:09;;;;;;;11.20;10.20;;;2.10;99.90;;;;;;5079875;27;20709;-59
2022/01/29 08:30:48;;;;;;;12.13;11.13;;;2.10;99.90;;;;;;5080334;27;20552;-59
2022/01/29 08:33:29;;;;;;;13.20;12.07;;;2.10;99.90;;;;;;5072939;28;20969;-59
2022/01/29 08:36:08;;;;;;;10.90;9.77;;;2.10;99.90;;;;;;5081891;27;20596;-56
2022/01/29 08:38:48;;;;;;;10.40;9.43;;;2.20;99.90;;;;;;5070569;27;21104;-59
2022/01/29 08:41:28;;;;;;;9.38;8.68;;;2.20;99.90;;;;;;5103832;27;20565;-58
2022/01/29 08:44:08;;;;;;;9.85;9.07;;;2.20;99.90;;;;;;5105302;27;20689;-59
2022/01/29 08:46:47;;;;;;;10.13;9.32;;;2.20;99.90;;;;;;5084298;27;20543;-59
2022/01/29 08:49:27;;;;;;;10.35;9.25;;;2.20;99.90;;;;;;5104367;27;21213;-57
2022/01/29 08:52:08;;;;;;;9.77;8.98;;;2.30;99.90;;;;;;5122388;27;20552;-59
2022/01/29 08:54:47;;;;;;;11.75;10.60;;;2.30;99.90;;;;;;5144090;27;20592;-59
2022/01/29 08:57:27;;;;;;;19.35;15.32;;;2.30;99.90;;;;;;5103133;27;20622;-59
2022/01/29 09:00:09;;;;;;;15.52;13.85;;;2.40;99.90;;;;;;5145681;27;20543;-59
2022/01/29 09:02:50;;;;;;;12.60;11.35;;;2.40;99.90;;;;;;5104880;27;20549;-58
2022/01/29 09:05:30;;;;;;;10.38;9.55;;;2.40;99.90;;;;;;5081825;27;20586;-59
2022/01/29 09:08:10;;;;;;;10.45;9.55;;;2.40;99.90;;;;;;5118444;27;21218;-60
2022/01/29 09:10:50;;;;;;;10.18;9.27;;;2.40;99.90;;;;;;5082735;28;20605;-60
2022/01/29 09:13:29;;;;;;;8.98;8.20;;;2.40;99.90;;;;;;5108318;27;20690;-58
2022/01/29 09:16:09;;;;;;;10.82;10.02;;;2.40;99.90;;;;;;5106468;27;20550;-58
2022/01/29 09:18:49;;;;;;;10.32;9.52;;;2.40;99.90;;;;;;5078929;27;20947;-59
2022/01/29 09:21:28;;;;;;;11.18;10.18;;;2.40;99.90;;;;;;5099570;27;21038;-58
2022/01/29 09:24:08;;;;;;;10.75;9.85;;;2.40;99.90;;;;;;5150231;27;20607;-59
2022/01/29 09:26:48;;;;;;;10.25;9.25;;;2.40;99.90;;;;;;5147991;27;20530;-59
2022/01/29 09:29:28;;;;;;;10.30;9.25;;;2.40;99.90;;;;;;5065830;27;20721;-59
2022/01/29 09:32:09;;;;;;;10.95;10.02;;;2.40;99.90;;;;;;5084313;27;20566;-59
2022/01/29 09:34:48;;;;;;;10.05;9.15;;;2.50;99.90;;;;;;5104673;27;21027;-59
2022/01/29 09:37:27;;;;;;;11.68;10.50;;;2.50;99.90;;;;;;5123039;27;20528;-57
2022/01/29 09:40:08;;;;;;;10.70;9.73;;;2.50;99.90;;;;;;5105303;27;20691;-59
2022/01/29 09:42:50;;;;;;;11.85;10.77;;;2.50;99.90;;;;;;5084613;27;20989;-58
2022/01/29 09:45:30;;;;;;;11.77;10.68;;;2.60;99.90;;;;;;5104645;27;20599;-58
2022/01/29 09:48:10;;;;;;;9.18;8.43;;;2.60;99.90;;;;;;5151723;27;21142;-58
2022/01/29 09:50:52;;;;;;;9.93;9.07;;;2.60;99.90;;;;;;5142437;27;21073;-58
2022/01/29 09:53:33;;;;;;;10.38;9.57;;;2.60;99.90;;;;;;5080420;27;21044;-59
2022/01/29 09:56:13;;;;;;;10.82;9.82;;;2.60;99.90;;;;;;5145122;27;20603;-57
2022/01/29 09:58:53;;;;;;;10.70;9.80;;;2.70;99.90;;;;;;5143461;27;20765;-59
2022/01/29 10:01:33;;;;;;;10.02;9.13;;;2.80;99.90;;;;;;5102858;27;20553;-59
2022/01/29 10:04:12;;;;;;;9.57;8.77;;;2.80;99.90;;;;;;5125289;27;20971;-59
2022/01/29 10:07:15;;;;;;;9.75;8.98;;;2.80;99.90;;;;;;5083769;27;21118;-57
2022/01/29 10:09:55;;;;;;;8.85;8.15;;;2.80;99.90;;;;;;5082733;28;20831;-59
2022/01/29 10:12:38;;;;;;;9.88;8.88;;;2.80;99.90;;;;;;5140523;27;20567;-58
2022/01/29 10:15:17;;;;;;;10.07;9.35;;;2.80;99.90;;;;;;5104194;27;20541;-59
2022/01/29 10:17:58;;;;;;;9.93;8.98;;;2.80;99.90;;;;;;5074766;27;21000;-59
2022/01/29 10:20:43;;;;;;;9.15;8.35;;;2.80;99.90;;;;;;5099995;27;20557;-57
2022/01/29 10:23:30;;;;;;;9.40;8.70;;;2.80;99.90;;;;;;5103708;27;20673;-59
2022/01/29 10:26:10;;;;;;;8.50;7.80;;;2.80;99.90;;;;;;5154105;27;20538;-57
2022/01/29 10:28:54;;;;;;;8.35;7.65;;;2.80;99.90;;;;;;5103692;27;20678;-58
2022/01/29 10:31:52;;;;;;;8.57;7.88;;;2.80;99.90;;;;;;5084283;27;21141;-59
2022/01/29 10:34:33;;;;;;;8.40;7.78;;;2.80;99.90;;;;;;5125006;27;20532;-59
2022/01/29 10:37:17;;;;;;;8.57;7.63;;;2.80;99.90;;;;;;5141031;27;20588;-59
2022/01/29 10:39:59;;;;;;;8.73;8.02;;;2.80;99.90;;;;;;5077889;27;21134;-59
2022/01/29 10:42:39;;;;;;;7.90;7.30;;;2.80;99.90;;;;;;5093448;27;20722;-57
2022/01/29 10:45:33;;;;;;;7.30;6.70;;;2.80;99.90;;;;;;5109398;27;20626;-59
2022/01/29 10:48:12;;;;;;;8.63;7.80;;;3.00;99.90;;;;;;5096118;27;20609;-58
2022/01/29 10:51:10;;;;;;;7.78;7.18;;;3.10;99.90;;;;;;5129286;27;20538;-59
2022/01/29 10:53:51;;;;;;;7.88;7.18;;;3.20;99.90;;;;;;5114774;27;20888;-59
2022/01/29 10:56:56;;;;;;;7.88;7.28;;;3.30;99.90;;;;;;5084628;27;20564;-59
2022/01/29 10:59:45;;;;;;;7.25;6.65;;;3.40;99.90;;;;;;5145386;27;20546;-59
2022/01/29 11:02:27;;;;;;;8.30;7.70;;;3.50;99.90;;;;;;5137318;27;20555;-59
2022/01/29 11:05:08;;;;;;;7.30;6.60;;;3.50;99.90;;;;;;5120916;27;20552;-59
2022/01/29 11:07:51;;;;;;;7.05;6.35;;;3.50;99.90;;;;;;5077713;27;20592;-58
2022/01/29 11:10:31;;;;;;;6.25;5.75;;;3.60;99.90;;;;;;5124425;27;20543;-59
2022/01/29 11:13:10;;;;;;;6.55;6.05;;;3.60;99.90;;;;;;5116817;27;20882;-58
2022/01/29 11:15:52;;;;;;;6.88;5.97;;;3.60;99.90;;;;;;5122335;27;20682;-58
2022/01/29 11:18:32;;;;;;;6.50;5.95;;;3.60;99.90;;;;;;5054336;27;20608;-57
2022/01/29 11:21:11;;;;;;;6.20;5.70;;;3.50;99.90;;;;;;5102701;27;21075;-59
2022/01/29 11:23:51;;;;;;;5.90;5.50;;;3.60;99.90;;;;;;5101653;27;20694;-59
2022/01/29 11:26:32;;;;;;;6.93;6.32;;;3.70;99.90;;;;;;5083369;27;20924;-59
2022/01/29 11:29:30;;;;;;;5.35;4.95;;;3.80;99.90;;;;;;5128071;27;20578;-58
2022/01/29 11:32:32;;;;;;;5.20;4.80;;;3.80;99.90;;;;;;5103933;27;20542;-59
2022/01/29 11:35:17;;;;;;;5.53;5.13;;;3.90;99.90;;;;;;5124790;27;20548;-59
2022/01/29 11:38:07;;;;;;;5.03;4.63;;;3.90;99.90;;;;;;5094846;27;21074;-57
2022/01/29 11:40:58;;;;;;;7.10;5.95;;;3.90;99.90;;;;;;5060120;27;20564;-59
2022/01/29 11:43:38;;;;;;;5.22;4.82;;;4.00;99.90;;;;;;5082824;27;21084;-57
2022/01/29 11:46:31;;;;;;;4.43;4.05;;;4.00;99.90;;;;;;5083102;28;20671;-57
2022/01/29 11:49:21;;;;;;;4.18;3.78;;;4.10;99.90;;;;;;5080377;27;21378;-58
2022/01/29 11:52:00;;;;;;;5.53;4.35;;;4.10;99.90;;;;;;5092598;27;20571;-59
2022/01/29 11:55:00;;;;;;;3.63;3.33;;;4.20;99.90;;;;;;5133643;27;20628;-58
2022/01/29 11:58:18;;;;;;;3.80;3.50;;;4.20;99.90;;;;;;5102810;27;20603;-57
2022/01/29 12:00:59;;;;;;;3.63;3.33;;;4.10;99.90;;;;;;5142696;27;20590;-57
2022/01/29 12:03:54;;;;;;;3.85;3.55;;;4.10;99.90;;;;;;5101007;27;20581;-58
2022/01/29 12:06:39;;;;;;;3.60;3.30;;;4.10;99.90;;;;;;5082738;27;20535;-59
2022/01/29 12:09:29;;;;;;;5.47;3.45;;;4.20;99.90;;;;;;5081686;27;21049;-58
2022/01/29 12:12:18;;;;;;;2.90;2.70;;;4.20;99.90;;;;;;5083301;27;20577;-58
2022/01/29 12:14:58;;;;;;;3.05;2.85;;;4.10;99.90;;;;;;5140110;27;20669;-59
2022/01/29 12:17:44;;;;;;;3.22;2.92;;;4.00;99.90;;;;;;5151101;27;20533;-59
2022/01/29 12:20:26;;;;;;;2.80;2.60;;;4.00;99.90;;;;;;5147933;27;20548;-57
2022/01/29 12:23:07;;;;;;;2.92;2.72;;;3.90;99.90;;;;;;5082931;28;20676;-57
2022/01/29 12:25:53;;;;;;;3.03;2.83;;;4.00;99.90;;;;;;5109874;27;20536;-58
2022/01/29 12:28:34;;;;;;;3.45;3.20;;;3.90;99.90;;;;;;5143004;27;20989;-57
2022/01/29 12:31:17;;;;;;;3.00;2.80;;;4.00;99.90;;;;;;5103708;27;20967;-57
2022/01/29 12:34:11;;;;;;;2.90;2.70;;;4.00;99.90;;;;;;5122725;27;20593;-57
2022/01/29 12:36:51;;;;;;;3.60;3.30;;;4.00;99.90;;;;;;5121490;27;20540;-57
2022/01/29 12:39:30;;;;;;;3.75;3.45;;;4.00;99.90;;;;;;5081505;28;20699;-58
2022/01/29 12:42:25;;;;;;;3.38;3.17;;;3.90;99.90;;;;;;5083557;27;20547;-59
2022/01/29 12:45:07;;;;;;;3.63;3.38;;;3.90;99.90;;;;;;5123553;27;20540;-59
2022/01/29 12:47:46;;;;;;;3.53;3.22;;;3.90;99.90;;;;;;5077738;28;20615;-58
2022/01/29 12:50:26;;;;;;;3.60;3.30;;;3.90;99.90;;;;;;5082607;28;20632;-56
2022/01/29 12:53:11;;;;;;;2.85;2.65;;;3.90;99.90;;;;;;5083165;27;20582;-57
2022/01/29 12:56:05;;;;;;;3.83;3.53;;;3.90;99.90;;;;;;5103408;27;20549;-58
2022/01/29 12:58:44;;;;;;;3.20;2.90;;;3.80;99.90;;;;;;5098862;27;20643;-59
2022/01/29 13:01:26;;;;;;;3.42;3.20;;;3.80;99.90;;;;;;5097399;27;20697;-59
2022/01/29 13:04:07;;;;;;;3.63;3.15;;;3.80;99.90;;;;;;5081313;28;20555;-58
2022/01/29 13:06:49;;;;;;;3.88;3.38;;;3.80;99.90;;;;;;5129611;27;20538;-59
2022/01/29 13:09:28;;;;;;;3.72;3.42;;;3.80;99.90;;;;;;5159351;27;20573;-58
2022/01/29 13:12:11;;;;;;;4.70;4.30;;;3.80;99.90;;;;;;5101531;27;20543;-59
2022/01/29 13:14:52;;;;;;;4.55;4.15;;;3.80;99.90;;;;;;5124544;27;20667;-60
2022/01/29 13:17:31;;;;;;;4.38;4.05;;;3.80;99.90;;;;;;5079409;28;20683;-59
2022/01/29 13:20:13;;;;;;;4.60;4.20;;;3.80;99.90;;;;;;5084761;27;21029;-58
2022/01/29 13:22:53;;;;;;;4.35;3.95;;;3.80;99.90;;;;;;5082574;28;21379;-59
2022/01/29 13:25:36;;;;;;;4.50;4.18;;;3.80;99.90;;;;;;5083010;28;20667;-58
2022/01/29 13:28:17;;;;;;;4.53;4.18;;;3.80;99.90;;;;;;5145335;27;20689;-59
2022/01/29 13:31:03;;;;;;;5.28;4.80;;;3.80;99.90;;;;;;5084190;28;20594;-59
2022/01/29 13:33:45;;;;;;;4.28;3.95;;;3.90;99.90;;;;;;5125256;27;20687;-59
2022/01/29 13:36:35;;;;;;;3.83;3.53;;;3.90;99.90;;;;;;5146149;27;20546;-57
2022/01/29 13:39:15;;;;;;;3.03;2.83;;;3.90;99.90;;;;;;5156785;27;20601;-58
2022/01/29 13:42:09;;;;;;;4.38;3.03;;;3.90;99.90;;;;;;5105666;27;20522;-59
2022/01/29 13:45:05;;;;;;;4.68;4.28;;;3.90;99.90;;;;;;5146481;27;20546;-59
2022/01/29 13:48:04;;;;;;;4.07;2.80;;;4.00;99.90;;;;;;5104551;27;21035;-59
2022/01/29 13:50:47;;;;;;;4.13;3.20;;;4.00;99.90;;;;;;5084530;27;20617;-59
2022/01/29 13:53:27;;;;;;;2.60;2.40;;;4.00;99.90;;;;;;5105261;27;20666;-59
2022/01/29 13:56:09;;;;;;;3.65;3.35;;;4.00;99.90;;;;;;5146173;27;20668;-58
2022/01/29 13:58:56;;;;;;;4.05;3.75;;;4.00;99.90;;;;;;5157116;27;20553;-59
2022/01/29 14:01:42;;;;;;;2.65;2.45;;;4.10;99.90;;;;;;5083918;27;20562;-58
2022/01/29 14:04:32;;;;;;;2.72;2.53;;;4.10;99.90;;;;;;5084389;28;20663;-59
2022/01/29 14:07:16;;;;;;;4.60;4.20;;;4.00;99.90;;;;;;5084416;27;20567;-58
2022/01/29 14:09:59;;;;;;;4.88;4.47;;;4.00;99.90;;;;;;5081322;27;20555;-59
2022/01/29 14:12:48;;;;;;;6.38;4.53;;;4.00;99.90;;;;;;5125245;27;20660;-59
2022/01/29 14:15:28;;;;;;;5.38;4.95;;;4.00;99.90;;;;;;5105709;27;21034;-58
2022/01/29 14:18:07;;;;;;;5.95;5.43;;;4.10;99.90;;;;;;5097928;27;20559;-59
2022/01/29 14:20:47;;;;;;;4.72;4.32;;;4.10;99.90;;;;;;5105221;27;20669;-58
2022/01/29 14:23:27;;;;;;;4.88;4.47;;;4.20;99.90;;;;;;5146376;27;20657;-57